createdAt,value
2022-09-03T00:00:06.962Z,1.00
2022-09-03T00:01:52.204Z,1.10
2022-09-03T00:03:41.395Z,1.10
2022-09-03T00:05:21.943Z,1.60
2022-09-03T00:07:01.843Z,1.20
2022-09-03T00:08:40.709Z,0.98
2022-09-03T00:10:22.226Z,1.45
2022-09-03T00:12:12.178Z,1.48
2022-09-03T00:14:06.605Z,1.40
2022-09-03T00:15:42.876Z,1.40
2022-09-03T00:17:24.207Z,1.80
2022-09-03T00:18:58.478Z,1.30
2022-09-03T00:20:43.005Z,1.40
2022-09-03T00:22:19.434Z,1.13
2022-09-03T00:23:52.631Z,1.15
2022-09-03T00:25:30.456Z,1.30
2022-09-03T00:27:09.331Z,1.05
2022-09-03T00:28:52.362Z,1.25
2022-09-03T00:30:24.692Z,0.80
2022-09-03T00:32:04.117Z,1.15
2022-09-03T00:33:36.043Z,1.00
2022-09-03T00:35:14.106Z,1.13
2022-09-03T00:36:46.385Z,1.10
2022-09-03T00:38:18.223Z,0.80
2022-09-03T00:39:50.302Z,1.30
2022-09-03T00:42:23.826Z,1.00
2022-09-03T00:44:17.524Z,1.08
2022-09-03T00:46:07.475Z,0.93
2022-09-03T00:48:10.393Z,0.90
2022-09-03T00:50:05.568Z,1.08
2022-09-03T00:52:24.616Z,0.90
2022-09-03T00:54:18.130Z,0.70
2022-09-03T00:57:52.150Z,1.00
2022-09-03T00:59:45.144Z,0.88
2022-09-03T01:01:22.008Z,1.10
2022-09-03T01:03:10.319Z,0.98
2022-09-03T01:04:48.080Z,0.82
2022-09-03T01:06:59.161Z,1.15
2022-09-03T01:08:37.076Z,1.00
2022-09-03T01:10:44.754Z,0.90
2022-09-03T01:12:35.266Z,0.68
2022-09-03T01:14:16.126Z,1.20
2022-09-03T01:16:06.704Z,0.68
2022-09-03T01:17:44.315Z,0.80
2022-09-03T01:19:49.668Z,0.82
2022-09-03T01:21:39.585Z,0.95
2022-09-03T01:23:46.194Z,0.90
2022-09-03T01:25:24.104Z,0.70
2022-09-03T01:27:05.807Z,0.70
2022-09-03T01:29:01.724Z,1.10
2022-09-03T01:30:39.202Z,0.70
2022-09-03T01:32:10.962Z,0.70
2022-09-03T01:34:34.103Z,0.63
2022-09-03T01:36:18.012Z,0.80
2022-09-03T01:38:17.490Z,0.80
2022-09-03T01:40:13.109Z,0.68
2022-09-03T01:42:20.417Z,0.85
2022-09-03T01:44:11.030Z,0.80
2022-09-03T01:46:00.767Z,0.80
2022-09-03T01:47:51.724Z,0.70
2022-09-03T01:49:33.234Z,0.60
2022-09-03T01:51:19.764Z,0.77
2022-09-03T01:52:56.262Z,0.65
2022-09-03T01:55:05.987Z,0.90
2022-09-03T01:56:59.406Z,0.80
2022-09-03T01:58:38.258Z,0.80
2022-09-03T02:00:20.530Z,0.80
2022-09-03T02:02:31.035Z,0.75
2022-09-03T02:04:14.879Z,0.70
2022-09-03T02:05:47.920Z,0.65
2022-09-03T02:07:19.973Z,0.73
2022-09-03T02:08:51.848Z,0.80
2022-09-03T02:10:51.974Z,0.90
2022-09-03T02:12:24.430Z,0.75
2022-09-03T02:13:57.936Z,0.82
2022-09-03T02:15:32.758Z,1.00
2022-09-03T02:17:05.686Z,0.90
2022-09-03T02:18:48.930Z,0.82
2022-09-03T02:20:23.190Z,0.90
2022-09-03T02:21:56.953Z,0.88
2022-09-03T02:23:29.009Z,0.95
2022-09-03T02:25:01.385Z,0.85
2022-09-03T02:26:33.360Z,0.90
2022-09-03T02:28:07.511Z,0.65
2022-09-03T02:29:49.535Z,0.77
2022-09-03T02:31:21.826Z,0.60
2022-09-03T02:32:53.788Z,0.88
2022-09-03T02:34:25.567Z,1.00
2022-09-03T02:35:57.471Z,0.90
2022-09-03T02:37:29.404Z,0.73
2022-09-03T02:39:01.346Z,0.80
2022-09-03T02:40:33.175Z,0.88
2022-09-03T02:42:05.238Z,0.90
2022-09-03T02:43:52.404Z,0.75
2022-09-03T02:45:27.959Z,0.95
2022-09-03T02:47:05.575Z,1.27
2022-09-03T02:48:41.047Z,0.82
2022-09-03T02:50:12.971Z,0.70
2022-09-03T02:51:45.204Z,0.73
2022-09-03T02:53:17.536Z,0.70
2022-09-03T02:54:49.668Z,0.77
2022-09-03T02:56:24.525Z,0.75
2022-09-03T02:57:56.971Z,0.60
2022-09-03T02:59:28.803Z,0.98
2022-09-03T03:01:00.739Z,0.80
2022-09-03T03:02:32.717Z,1.10
2022-09-03T03:04:04.580Z,0.90
2022-09-03T03:05:46.920Z,0.90
2022-09-03T03:07:18.751Z,0.90
2022-09-03T03:08:50.843Z,0.73
2022-09-03T03:10:22.711Z,0.93
2022-09-03T03:11:55.615Z,0.57
2022-09-03T03:13:28.683Z,0.85
2022-09-03T03:15:00.547Z,1.02
2022-09-03T03:16:32.463Z,0.70
2022-09-03T03:18:04.454Z,0.95
2022-09-03T03:19:36.287Z,0.80
2022-09-03T03:21:10.763Z,0.80
2022-09-03T03:22:42.606Z,0.63
2022-09-03T03:24:14.441Z,0.70
2022-09-03T03:25:46.296Z,1.00
2022-09-03T03:27:19.061Z,0.70
2022-09-03T03:30:23.429Z,0.82
2022-09-03T03:31:55.244Z,0.93
2022-09-03T03:33:27.071Z,0.60
2022-09-03T03:34:58.929Z,0.63
2022-09-03T03:36:32.936Z,0.65
2022-09-03T03:38:05.269Z,0.90
2022-09-03T03:39:37.304Z,0.70
2022-09-03T03:41:15.857Z,0.68
2022-09-03T03:42:47.668Z,0.70
2022-09-03T03:44:20.413Z,0.60
2022-09-03T03:47:34.137Z,0.60
2022-09-03T03:49:06.855Z,0.70
2022-09-03T03:52:10.385Z,0.60
2022-09-03T03:53:42.209Z,0.77
2022-09-03T03:55:16.057Z,0.80
2022-09-03T03:56:55.780Z,0.77
2022-09-03T03:58:32.694Z,0.55
2022-09-03T04:00:05.162Z,0.60
2022-09-03T04:01:46.242Z,0.88
2022-09-03T04:03:18.485Z,0.55
2022-09-03T04:04:50.359Z,0.65
2022-09-03T04:06:22.393Z,0.70
2022-09-03T04:07:54.251Z,0.60
2022-09-03T04:09:26.126Z,0.60
2022-09-03T04:11:01.891Z,0.73
2022-09-03T04:12:36.787Z,0.57
2022-09-03T04:14:08.625Z,0.73
2022-09-03T04:15:41.014Z,0.60
2022-09-03T04:17:12.871Z,0.80
2022-09-03T04:18:45.008Z,0.60
2022-09-03T04:20:16.877Z,0.98
2022-09-03T04:21:48.709Z,0.50
2022-09-03T04:23:23.767Z,0.90
2022-09-03T04:24:55.760Z,0.80
2022-09-03T04:26:32.446Z,0.85
2022-09-03T04:28:04.775Z,0.60
2022-09-03T04:31:11.483Z,0.85
2022-09-03T04:32:56.268Z,0.80
2022-09-03T04:34:28.037Z,0.60
2022-09-03T04:36:13.347Z,0.70
2022-09-03T04:37:45.230Z,0.70
2022-09-03T04:39:17.108Z,0.67
2022-09-03T04:40:53.061Z,0.87
2022-09-03T04:42:25.219Z,0.98
2022-09-03T04:43:59.779Z,0.77
2022-09-03T04:45:31.688Z,0.90
2022-09-03T04:47:03.955Z,0.90
2022-09-03T04:48:37.674Z,0.80
2022-09-03T04:50:10.125Z,0.70
2022-09-03T04:51:42.422Z,0.70
2022-09-03T04:53:14.341Z,0.57
2022-09-03T04:54:46.313Z,0.80
2022-09-03T04:56:24.043Z,0.73
2022-09-03T04:57:55.943Z,0.90
2022-09-03T04:59:27.764Z,0.77
2022-09-03T05:01:08.307Z,0.70
2022-09-03T05:02:40.481Z,0.95
2022-09-03T05:04:12.324Z,0.95
2022-09-03T05:05:52.582Z,0.95
2022-09-03T05:07:24.357Z,0.70
2022-09-03T05:08:56.664Z,0.47
2022-09-03T05:10:28.810Z,0.60
2022-09-03T05:12:00.817Z,0.60
2022-09-03T05:13:33.851Z,0.85
2022-09-03T05:15:06.630Z,1.05
2022-09-03T05:18:10.509Z,0.88
2022-09-03T05:19:42.333Z,1.00
2022-09-03T05:21:18.580Z,0.80
2022-09-03T05:22:50.359Z,0.80
2022-09-03T05:24:22.238Z,0.70
2022-09-03T05:25:58.560Z,1.00
2022-09-03T05:27:31.495Z,0.60
2022-09-03T05:29:07.731Z,1.35
2022-09-03T05:30:39.530Z,0.60
2022-09-03T05:32:17.385Z,0.80
2022-09-03T05:33:51.739Z,0.55
2022-09-03T05:35:26.011Z,1.92
2022-09-03T05:36:58.724Z,0.63
2022-09-03T05:38:30.596Z,0.90
2022-09-03T05:40:02.723Z,0.70
2022-09-03T05:41:34.649Z,0.85
2022-09-03T05:43:08.527Z,0.67
2022-09-03T05:44:40.801Z,1.17
2022-09-03T05:46:15.577Z,0.75
2022-09-03T05:47:47.407Z,0.57
2022-09-03T05:49:19.261Z,0.90
2022-09-03T05:51:00.078Z,0.77
2022-09-03T05:52:31.992Z,0.52
2022-09-03T05:54:04.242Z,0.80
2022-09-03T05:55:36.080Z,0.68
2022-09-03T05:57:07.937Z,1.35
2022-09-03T05:58:44.387Z,0.77
2022-09-03T06:00:16.501Z,0.85
2022-09-03T06:01:51.441Z,1.00
2022-09-03T06:03:24.305Z,1.05
2022-09-03T06:04:57.874Z,0.90
2022-09-03T06:06:31.745Z,0.65
2022-09-03T06:08:03.575Z,0.73
2022-09-03T06:09:35.461Z,1.17
2022-09-03T06:11:07.754Z,0.98
2022-09-03T06:12:39.640Z,0.90
2022-09-03T06:14:13.384Z,1.08
2022-09-03T06:15:45.220Z,0.98
2022-09-03T06:17:17.086Z,0.70
2022-09-03T06:18:49.369Z,0.90
2022-09-03T06:20:21.268Z,0.70
2022-09-03T06:21:53.089Z,1.17
2022-09-03T06:23:25.848Z,0.57
2022-09-03T06:24:57.693Z,1.00
2022-09-03T06:26:29.998Z,1.00
2022-09-03T06:28:02.384Z,0.93
2022-09-03T06:29:35.681Z,1.10
2022-09-03T06:31:09.342Z,0.52
2022-09-03T06:32:45.413Z,0.70
2022-09-03T06:34:20.183Z,0.80
2022-09-03T06:35:58.176Z,0.80
2022-09-03T06:37:29.963Z,0.75
2022-09-03T06:39:01.931Z,0.80
2022-09-03T06:40:33.774Z,0.60
2022-09-03T06:42:06.118Z,1.03
2022-09-03T06:43:42.494Z,0.88
2022-09-03T06:45:14.489Z,0.93
2022-09-03T06:46:47.396Z,0.60
2022-09-03T06:48:19.326Z,0.70
2022-09-03T06:49:51.189Z,1.10
2022-09-03T06:51:27.306Z,0.65
2022-09-03T06:52:59.083Z,0.60
2022-09-03T06:54:30.922Z,0.90
2022-09-03T06:56:07.799Z,0.73
2022-09-03T06:57:39.649Z,0.77
2022-09-03T06:59:13.848Z,0.60
2022-09-03T07:00:45.856Z,0.75
2022-09-03T07:02:19.306Z,1.25
2022-09-03T07:03:56.668Z,0.95
2022-09-03T07:05:29.190Z,0.60
2022-09-03T07:07:01.170Z,0.80
2022-09-03T07:08:34.451Z,0.50
2022-09-03T07:10:07.092Z,0.68
2022-09-03T07:11:46.958Z,0.90
2022-09-03T07:13:22.589Z,0.80
2022-09-03T07:14:54.419Z,0.82
2022-09-03T07:16:28.786Z,0.60
2022-09-03T07:18:01.241Z,0.63
2022-09-03T07:19:33.133Z,0.70
2022-09-03T07:21:08.176Z,0.60
2022-09-03T07:22:39.924Z,0.68
2022-09-03T07:24:12.690Z,0.80
2022-09-03T07:27:16.318Z,0.70
2022-09-03T07:28:49.237Z,0.90
2022-09-03T07:30:21.200Z,0.60
2022-09-03T07:31:53.520Z,0.60
2022-09-03T07:33:25.494Z,0.57
2022-09-03T07:34:58.237Z,0.90
2022-09-03T07:36:35.508Z,0.65
2022-09-03T07:38:08.149Z,0.60
2022-09-03T07:39:41.575Z,0.85
2022-09-03T07:41:18.886Z,0.80
2022-09-03T07:43:03.598Z,0.73
2022-09-03T07:44:35.461Z,0.70
2022-09-03T07:46:08.625Z,0.75
2022-09-03T07:47:47.992Z,0.70
2022-09-03T07:49:22.114Z,0.63
2022-09-03T07:51:01.285Z,0.60
2022-09-03T07:52:33.427Z,0.70
2022-09-03T07:54:07.866Z,0.73
2022-09-03T07:55:40.527Z,1.00
2022-09-03T07:57:12.454Z,0.70
2022-09-03T07:58:44.515Z,1.17
2022-09-03T08:00:17.818Z,1.58
2022-09-03T08:01:51.078Z,0.82
2022-09-03T08:03:23.276Z,0.80
2022-09-03T08:04:55.094Z,0.73
2022-09-03T08:06:28.810Z,0.60
2022-09-03T08:08:01.556Z,0.80
2022-09-03T08:09:35.040Z,0.85
2022-09-03T08:11:12.214Z,0.80
2022-09-03T08:12:43.958Z,0.90
2022-09-03T08:14:16.663Z,1.10
2022-09-03T08:17:27.155Z,0.63
2022-09-03T08:18:59.363Z,0.60
2022-09-03T08:20:31.344Z,0.95
2022-09-03T08:22:03.248Z,0.90
2022-09-03T08:23:45.483Z,0.98
2022-09-03T08:25:17.424Z,0.60
2022-09-03T08:26:52.046Z,0.65
2022-09-03T08:28:27.422Z,0.90
2022-09-03T08:29:59.503Z,1.85
2022-09-03T08:31:32.592Z,0.80
2022-09-03T08:33:07.162Z,0.80
2022-09-03T08:34:39.039Z,0.88
2022-09-03T08:36:17.182Z,0.80
2022-09-03T08:37:56.759Z,0.80
2022-09-03T08:39:29.641Z,0.75
2022-09-03T08:41:11.823Z,0.77
2022-09-03T08:43:30.142Z,0.57
2022-09-03T08:45:03.763Z,0.70
2022-09-03T08:46:44.256Z,0.90
2022-09-03T08:48:25.727Z,0.73
2022-09-03T08:50:05.555Z,0.60
2022-09-03T08:51:40.482Z,0.85
2022-09-03T08:53:34.989Z,0.70
2022-09-03T08:55:25.301Z,0.80
2022-09-03T08:57:01.231Z,1.15
2022-09-03T08:58:34.669Z,0.98
2022-09-03T09:00:07.052Z,1.60
2022-09-03T09:01:59.055Z,0.98
2022-09-03T09:04:01.472Z,1.00
2022-09-03T09:05:48.615Z,0.70
2022-09-03T09:08:01.266Z,0.85
2022-09-03T09:09:39.271Z,1.00
2022-09-03T09:11:25.640Z,0.90
2022-09-03T09:13:09.027Z,0.82
2022-09-03T09:15:08.530Z,0.80
2022-09-03T09:16:43.299Z,0.88
2022-09-03T09:18:24.157Z,0.70
2022-09-03T09:20:01.813Z,0.90
2022-09-03T09:21:46.115Z,0.82
2022-09-03T09:23:28.755Z,0.80
2022-09-03T09:25:05.513Z,0.77
2022-09-03T09:26:43.499Z,0.80
2022-09-03T09:28:21.637Z,1.00
2022-09-03T09:29:54.845Z,0.80
2022-09-03T09:31:28.662Z,0.90
2022-09-03T09:33:00.890Z,0.82
2022-09-03T09:34:37.329Z,0.60
2022-09-03T09:36:13.697Z,0.80
2022-09-03T09:37:50.948Z,0.80
2022-09-03T09:39:23.394Z,1.08
2022-09-03T09:40:57.642Z,0.80
2022-09-03T09:42:31.232Z,1.15
2022-09-03T09:44:05.750Z,1.00
2022-09-03T09:45:41.622Z,0.80
2022-09-03T09:47:17.292Z,0.82
2022-09-03T09:48:55.688Z,1.10
2022-09-03T09:50:28.801Z,0.93
2022-09-03T09:52:12.284Z,0.80
2022-09-03T09:53:45.180Z,0.70
2022-09-03T09:55:19.824Z,0.80
2022-09-03T09:57:03.794Z,1.05
2022-09-03T09:58:36.301Z,0.90
2022-09-03T10:00:18.768Z,1.02
2022-09-03T10:01:50.712Z,0.88
2022-09-03T10:03:22.720Z,0.90
2022-09-03T10:05:02.111Z,1.10
2022-09-03T10:06:52.687Z,1.20
2022-09-03T10:08:25.678Z,0.85
2022-09-03T10:10:17.180Z,0.82
2022-09-03T10:12:14.824Z,0.98
2022-09-03T10:13:48.650Z,0.73
2022-09-03T10:15:56.455Z,1.05
2022-09-03T10:17:43.078Z,1.15
2022-09-03T10:19:24.912Z,0.77
2022-09-03T10:21:18.602Z,1.00
2022-09-03T10:22:57.044Z,0.77
2022-09-03T10:24:39.701Z,0.82
2022-09-03T10:26:15.302Z,1.05
2022-09-03T10:27:47.293Z,0.60
2022-09-03T10:29:22.921Z,0.90
2022-09-03T10:31:00.688Z,1.10
2022-09-03T10:32:54.186Z,1.02
2022-09-03T10:34:58.916Z,0.95
2022-09-03T10:36:45.867Z,0.98
2022-09-03T10:38:30.134Z,0.90
2022-09-03T10:40:32.383Z,1.27
2022-09-03T10:42:21.990Z,1.20
2022-09-03T10:44:06.910Z,0.82
2022-09-03T10:46:09.496Z,1.15
2022-09-03T10:48:09.256Z,0.90
2022-09-03T10:49:50.160Z,1.23
2022-09-03T10:51:35.533Z,0.75
2022-09-03T10:53:40.123Z,1.10
2022-09-03T10:55:48.237Z,1.20
2022-09-03T10:57:44.727Z,1.05
2022-09-03T10:59:26.054Z,1.17
2022-09-03T11:01:07.323Z,0.80
2022-09-03T11:03:07.674Z,1.25
2022-09-03T11:04:39.431Z,1.02
2022-09-03T11:06:29.363Z,0.90
2022-09-03T11:08:09.630Z,1.17
2022-09-03T11:09:46.979Z,1.10
2022-09-03T11:11:34.124Z,1.00
2022-09-03T11:13:39.619Z,1.10
2022-09-03T11:15:25.209Z,0.95
2022-09-03T11:17:05.143Z,1.10
2022-09-03T11:18:44.999Z,1.10
2022-09-03T11:20:20.567Z,1.08
2022-09-03T11:21:53.274Z,1.05
2022-09-03T11:23:28.063Z,1.00
2022-09-03T11:25:01.045Z,1.35
2022-09-03T11:26:35.168Z,1.15
2022-09-03T11:28:23.205Z,1.13
2022-09-03T11:30:22.688Z,0.93
2022-09-03T11:32:17.964Z,1.30
2022-09-03T11:34:06.147Z,1.15
2022-09-03T11:35:41.964Z,0.80
2022-09-03T11:37:13.754Z,0.90
2022-09-03T11:38:45.682Z,1.17
2022-09-03T11:40:18.921Z,1.20
2022-09-03T11:42:04.665Z,1.33
2022-09-03T11:43:37.082Z,1.20
2022-09-03T11:45:30.299Z,0.90
2022-09-03T11:47:02.178Z,1.30
2022-09-03T11:48:38.095Z,1.45
2022-09-03T11:50:32.073Z,1.58
2022-09-03T11:52:10.081Z,1.10
2022-09-03T11:53:41.917Z,1.23
2022-09-03T11:55:31.832Z,1.23
2022-09-03T11:57:23.317Z,1.42
2022-09-03T11:59:13.884Z,1.05
2022-09-03T12:00:46.255Z,1.25
2022-09-03T12:02:32.190Z,1.23
2022-09-03T12:04:07.435Z,1.20
2022-09-03T12:05:48.367Z,1.25
2022-09-03T12:07:38.736Z,4.55
2022-09-03T12:09:46.211Z,1.90
2022-09-03T12:11:52.951Z,1.25
2022-09-03T12:13:43.416Z,1.08
2022-09-03T12:15:48.093Z,1.30
2022-09-03T12:17:25.602Z,1.33
2022-09-03T12:19:04.617Z,1.17
2022-09-03T12:20:36.468Z,1.50
2022-09-03T12:22:15.172Z,1.27
2022-09-03T12:23:50.038Z,1.17
2022-09-03T12:25:21.998Z,1.10
2022-09-03T12:26:53.780Z,1.45
2022-09-03T12:28:31.177Z,1.25
2022-09-03T12:30:05.156Z,1.25
2022-09-03T12:31:45.301Z,1.30
2022-09-03T12:33:18.489Z,1.27
2022-09-03T12:34:50.342Z,1.73
2022-09-03T12:36:23.221Z,1.30
2022-09-03T12:38:14.961Z,1.30
2022-09-03T12:40:10.023Z,1.40
2022-09-03T12:42:09.509Z,1.50
2022-09-03T12:43:44.106Z,1.02
2022-09-03T12:45:24.506Z,1.35
2022-09-03T12:51:47.571Z,1.58
2022-09-03T12:53:00.950Z,1.58
2022-09-03T12:54:33.977Z,1.20
2022-09-03T12:56:06.441Z,1.40
2022-09-03T12:59:18.239Z,2.05
2022-09-03T13:01:34.724Z,1.40
2022-09-03T13:03:17.802Z,1.33
2022-09-03T13:04:51.732Z,1.15
2022-09-03T13:06:30.410Z,1.20
2022-09-03T13:08:07.076Z,1.77
2022-09-03T13:09:40.232Z,1.30
2022-09-03T13:11:16.379Z,1.73
2022-09-03T13:12:53.190Z,1.15
2022-09-03T13:14:26.971Z,1.15
2022-09-03T13:16:07.503Z,1.20
2022-09-03T13:18:06.417Z,1.27
2022-09-03T13:19:44.406Z,1.55
2022-09-03T13:21:27.873Z,1.23
2022-09-03T13:23:29.877Z,1.40
2022-09-03T13:25:02.234Z,1.17
2022-09-03T13:28:27.814Z,1.40
2022-09-03T13:30:11.979Z,1.00
2022-09-03T13:32:05.421Z,1.35
2022-09-03T13:33:44.771Z,1.40
2022-09-03T13:35:40.287Z,1.63
2022-09-03T13:37:48.279Z,1.50
2022-09-03T13:39:31.050Z,1.20
2022-09-03T13:42:53.352Z,1.30
2022-09-03T13:44:45.797Z,1.23
2022-09-03T13:46:42.393Z,1.55
2022-09-03T13:48:38.615Z,1.35
2022-09-03T13:50:22.275Z,1.40
2022-09-03T13:52:00.323Z,1.10
2022-09-03T13:53:44.261Z,1.13
2022-09-03T13:55:23.312Z,1.20
2022-09-03T13:57:00.296Z,1.08
2022-09-03T13:58:33.807Z,1.23
2022-09-03T14:00:08.700Z,1.20
2022-09-03T14:02:14.337Z,1.30
2022-09-03T14:03:51.623Z,1.58
2022-09-03T14:05:29.427Z,1.48
2022-09-03T14:07:09.884Z,1.30
2022-09-03T14:09:02.584Z,1.38
2022-09-03T14:11:08.644Z,1.20
2022-09-03T14:13:16.560Z,1.35
2022-09-03T14:15:05.633Z,1.10
2022-09-03T14:16:55.451Z,0.90
2022-09-03T14:18:51.614Z,1.10
2022-09-03T14:20:34.280Z,1.30
2022-09-03T14:22:45.043Z,1.13
2022-09-03T14:24:20.016Z,1.30
2022-09-03T14:25:55.872Z,1.05
2022-09-03T14:27:29.804Z,1.30
2022-09-03T14:29:10.960Z,1.30
2022-09-03T14:31:08.164Z,1.20
2022-09-03T14:33:01.520Z,1.30
2022-09-03T14:35:04.439Z,1.45
2022-09-03T14:36:49.190Z,1.10
2022-09-03T14:38:50.360Z,1.20
2022-09-03T14:40:31.849Z,1.25
2022-09-03T14:42:06.400Z,1.10
2022-09-03T14:43:56.918Z,1.20
2022-09-03T14:45:50.536Z,1.50
2022-09-03T14:47:47.903Z,1.25
2022-09-03T14:49:46.026Z,1.10
2022-09-03T14:51:34.771Z,1.30
2022-09-03T14:53:25.909Z,1.30
2022-09-03T14:55:26.367Z,1.60
2022-09-03T14:57:23.285Z,1.30
2022-09-03T14:59:48.765Z,1.42
2022-09-03T15:01:39.732Z,1.58
2022-09-03T15:03:25.585Z,1.70
2022-09-03T15:05:19.032Z,2.03
2022-09-03T15:07:12.854Z,1.58
2022-09-03T15:09:15.895Z,1.50
2022-09-03T15:10:56.778Z,1.35
2022-09-03T15:12:36.346Z,1.80
2022-09-03T15:14:15.517Z,1.85
2022-09-03T15:16:09.369Z,1.67
2022-09-03T15:17:59.606Z,1.50
2022-09-03T15:19:40.441Z,1.80
2022-09-03T15:21:28.647Z,1.40
2022-09-03T15:23:03.552Z,1.48
2022-09-03T15:25:03.347Z,1.42
2022-09-03T15:26:57.087Z,1.52
2022-09-03T15:28:47.629Z,1.38
2022-09-03T15:30:20.359Z,1.20
2022-09-03T15:32:01.338Z,1.38
2022-09-03T15:33:49.856Z,1.45
2022-09-03T15:35:56.822Z,1.60
2022-09-03T15:37:39.673Z,1.20
2022-09-03T15:40:45.646Z,1.40
2022-09-03T15:42:27.480Z,1.35
2022-09-03T15:44:00.712Z,1.45
2022-09-03T15:46:01.396Z,1.10
2022-09-03T15:47:52.065Z,1.70
2022-09-03T15:49:45.933Z,1.63
2022-09-03T15:51:27.402Z,1.55
2022-09-03T15:53:35.958Z,1.95
2022-09-03T15:55:11.683Z,1.38
2022-09-03T15:56:59.330Z,1.42
2022-09-03T15:58:43.528Z,1.52
2022-09-03T16:00:21.309Z,2.08
2022-09-03T16:02:15.731Z,1.73
2022-09-03T16:03:59.863Z,1.30
2022-09-03T16:05:49.506Z,1.80
2022-09-03T16:07:52.716Z,1.75
2022-09-03T16:09:35.600Z,1.58
2022-09-03T16:13:26.339Z,1.70
2022-09-03T16:15:10.447Z,1.45
2022-09-03T16:17:03.198Z,2.05
2022-09-03T16:18:46.709Z,1.70
2022-09-03T16:20:32.842Z,1.80
2022-09-03T16:22:19.731Z,1.65
2022-09-03T16:24:04.441Z,1.90
2022-09-03T16:25:48.170Z,1.52
2022-09-03T16:27:31.613Z,1.40
2022-09-03T16:29:15.210Z,1.67
2022-09-03T16:31:13.702Z,1.67
2022-09-03T16:32:51.975Z,1.65
2022-09-03T16:34:36.461Z,1.45
2022-09-03T16:36:11.295Z,1.52
2022-09-03T16:38:10.986Z,1.80
2022-09-03T16:40:05.660Z,1.42
2022-09-03T16:41:59.339Z,1.50
2022-09-03T16:43:45.351Z,2.28
2022-09-03T16:45:33.948Z,1.95
2022-09-03T16:47:15.302Z,1.80
2022-09-03T16:49:13.117Z,1.83
2022-09-03T16:50:58.269Z,1.65
2022-09-03T16:52:54.597Z,1.50
2022-09-03T16:54:57.455Z,1.83
2022-09-03T16:56:57.444Z,2.83
2022-09-03T16:58:49.725Z,2.60
2022-09-03T17:00:22.451Z,3.20
2022-09-03T17:02:40.578Z,3.00
2022-09-03T17:04:22.662Z,2.78
2022-09-03T17:05:57.075Z,2.97
2022-09-03T17:07:54.268Z,3.35
2022-09-03T17:09:41.677Z,2.90
2022-09-03T17:11:34.902Z,2.20
2022-09-03T17:13:14.052Z,1.90
2022-09-03T17:15:17.457Z,2.00
2022-09-03T17:17:23.719Z,1.90
2022-09-03T17:19:15.226Z,2.00
2022-09-03T17:21:14.412Z,2.20
2022-09-03T17:23:09.690Z,2.25
2022-09-03T17:24:48.245Z,2.00
2022-09-03T17:26:31.514Z,1.77
2022-09-03T17:28:37.781Z,1.88
2022-09-03T17:30:09.639Z,2.15
2022-09-03T17:32:00.529Z,2.50
2022-09-03T17:33:54.084Z,2.22
2022-09-03T17:35:41.379Z,2.50
2022-09-03T17:37:40.400Z,1.77
2022-09-03T17:39:12.284Z,1.83
2022-09-03T17:40:47.849Z,2.30
2022-09-03T17:42:33.958Z,2.00
2022-09-03T17:44:48.332Z,1.80
2022-09-03T17:46:34.780Z,2.03
2022-09-03T17:48:24.359Z,1.90
2022-09-03T17:50:10.443Z,2.40
2022-09-03T17:51:46.738Z,2.17
2022-09-03T17:53:27.056Z,2.00
2022-09-03T17:55:34.034Z,2.80
2022-09-03T17:57:12.351Z,2.67
2022-09-03T17:58:51.249Z,2.60
2022-09-03T18:00:42.735Z,2.63
2022-09-03T18:02:14.568Z,2.92
2022-09-03T18:03:54.980Z,2.45
2022-09-03T18:05:32.496Z,2.70
2022-09-03T18:07:15.840Z,2.58
2022-09-03T18:08:53.655Z,2.22
2022-09-03T18:10:45.458Z,2.25
2022-09-03T18:12:38.485Z,2.83
2022-09-03T18:14:31.633Z,2.72
2022-09-03T18:16:19.825Z,2.25
2022-09-03T18:18:03.599Z,2.60
2022-09-03T18:19:58.401Z,2.05
2022-09-03T18:21:54.319Z,1.85
2022-09-03T18:23:50.028Z,1.75
2022-09-03T18:25:43.244Z,1.95
2022-09-03T18:27:39.801Z,2.78
2022-09-03T18:30:07.536Z,2.60
2022-09-03T18:31:58.019Z,2.75
2022-09-03T18:33:48.654Z,2.83
2022-09-03T18:35:38.973Z,2.70
2022-09-03T18:37:29.382Z,3.03
2022-09-03T18:39:47.374Z,2.58
2022-09-03T18:42:17.851Z,3.22
2022-09-03T18:44:27.509Z,2.75
2022-09-03T18:48:46.149Z,2.35
2022-09-03T18:50:44.808Z,2.10
2022-09-03T18:52:46.053Z,2.05
2022-09-03T18:55:07.353Z,2.15
2022-09-03T18:57:00.789Z,2.53
2022-09-03T18:59:16.950Z,2.05
2022-09-03T19:01:28.822Z,2.60
2022-09-03T19:03:19.256Z,2.55
2022-09-03T19:05:28.473Z,2.45
2022-09-03T19:07:31.810Z,2.50
2022-09-03T19:09:32.175Z,2.80
2022-09-03T19:11:29.424Z,3.10
2022-09-03T19:13:50.946Z,2.65
2022-09-03T19:15:47.482Z,2.50
2022-09-03T19:18:00.407Z,2.33
2022-09-03T19:20:00.232Z,2.33
2022-09-03T19:22:17.439Z,2.08
2022-09-03T19:24:07.723Z,2.20
2022-09-03T19:25:57.950Z,2.58
2022-09-03T19:27:58.848Z,2.63
2022-09-03T19:30:25.568Z,2.38
2022-09-03T19:32:20.328Z,1.73
2022-09-03T19:34:48.299Z,1.50
2022-09-03T19:36:58.802Z,1.88
2022-09-03T19:39:07.400Z,1.77
2022-09-03T19:41:24.345Z,2.00
2022-09-03T19:43:20.790Z,1.98
2022-09-03T19:45:29.548Z,2.10
2022-09-03T19:47:21.574Z,2.25
2022-09-03T19:49:25.566Z,1.90
2022-09-03T19:51:27.124Z,2.65
2022-09-03T19:53:50.089Z,2.40
2022-09-03T19:55:45.442Z,2.65
2022-09-03T19:57:37.672Z,2.10
2022-09-03T19:59:39.006Z,2.33
2022-09-03T20:01:30.512Z,2.05
2022-09-03T20:03:21.910Z,2.13
2022-09-03T20:05:20.613Z,2.47
2022-09-03T20:07:11.396Z,2.58
2022-09-03T20:09:02.700Z,2.33
2022-09-03T20:10:35.398Z,2.22
2022-09-03T20:12:10.009Z,2.45
2022-09-03T20:14:00.902Z,2.20
2022-09-03T20:15:58.704Z,1.85
2022-09-03T20:17:49.186Z,1.92
2022-09-03T20:20:06.806Z,2.10
2022-09-03T20:22:02.502Z,2.50
2022-09-03T20:23:46.990Z,2.50
2022-09-03T20:25:36.719Z,2.33
2022-09-03T20:27:33.118Z,2.20
2022-09-03T20:29:23.046Z,2.22
2022-09-03T20:31:16.459Z,2.15
2022-09-03T20:34:44.078Z,2.70
2022-09-03T20:36:37.184Z,2.53
2022-09-03T20:38:27.819Z,2.08
2022-09-03T20:40:18.000Z,2.45
2022-09-03T20:41:50.492Z,2.53
2022-09-03T20:43:33.508Z,2.38
2022-09-03T20:45:17.157Z,2.20
2022-09-03T20:47:01.573Z,2.58
2022-09-03T20:48:43.434Z,2.13
2022-09-03T20:50:45.373Z,2.15
2022-09-03T20:52:23.416Z,2.45
2022-09-03T20:54:09.638Z,2.17
2022-09-03T20:55:51.159Z,2.47
2022-09-03T20:57:30.898Z,2.40
2022-09-03T20:59:13.339Z,2.67
2022-09-03T21:00:52.202Z,2.70
2022-09-03T21:03:00.226Z,2.58
2022-09-03T21:05:06.307Z,2.10
2022-09-03T21:06:45.054Z,2.33
2022-09-03T21:08:26.528Z,2.20
2022-09-03T21:10:05.702Z,2.25
2022-09-03T21:11:55.636Z,2.50
2022-09-03T21:13:58.540Z,2.80
2022-09-03T21:15:44.146Z,2.53
2022-09-03T21:17:19.754Z,2.10
2022-09-03T21:19:00.896Z,2.63
2022-09-03T21:20:50.815Z,2.40
2022-09-03T21:22:40.974Z,2.25
2022-09-03T21:24:20.218Z,2.72
2022-09-03T21:26:10.029Z,2.53
2022-09-03T21:27:46.659Z,2.50
2022-09-03T21:29:39.365Z,2.88
2022-09-03T21:31:26.662Z,2.45
2022-09-03T21:33:24.115Z,3.03
2022-09-03T21:35:08.558Z,2.53
2022-09-03T21:36:43.230Z,2.55
2022-09-03T21:38:19.752Z,3.03
2022-09-03T21:39:52.479Z,2.95
2022-09-03T21:41:31.703Z,2.90
2022-09-03T21:43:15.223Z,3.10
2022-09-03T21:44:58.750Z,2.85
2022-09-03T21:46:42.458Z,2.80
2022-09-03T21:48:36.011Z,2.83
2022-09-03T21:51:57.670Z,3.42
2022-09-03T21:53:43.290Z,3.30
2022-09-03T21:55:34.737Z,2.85
2022-09-03T21:57:31.001Z,3.13
2022-09-03T21:59:08.852Z,3.83
2022-09-03T22:00:41.212Z,2.78
2022-09-03T22:02:27.399Z,3.22
2022-09-03T22:03:59.427Z,3.67
2022-09-03T22:05:54.532Z,3.08
2022-09-03T22:07:44.730Z,3.22
2022-09-03T22:09:59.909Z,3.22
2022-09-03T22:11:44.270Z,3.08
2022-09-03T22:13:46.693Z,3.85
2022-09-03T22:15:20.135Z,2.97
2022-09-03T22:17:10.919Z,3.45
2022-09-03T22:18:44.289Z,3.58
2022-09-03T22:20:18.404Z,3.78
2022-09-03T22:21:59.811Z,3.45
2022-09-03T22:23:55.671Z,3.90
2022-09-03T22:25:40.785Z,3.40
2022-09-03T22:27:45.284Z,3.63
2022-09-03T22:29:25.325Z,3.00
2022-09-03T22:31:04.972Z,3.65
2022-09-03T22:32:42.210Z,3.28
2022-09-03T22:34:58.665Z,3.90
2022-09-03T22:36:42.176Z,4.00
2022-09-03T22:38:51.102Z,3.50
2022-09-03T22:40:25.555Z,3.97
2022-09-03T22:42:15.320Z,3.97
2022-09-03T22:44:02.144Z,3.92
2022-09-03T22:46:10.653Z,3.83
2022-09-03T22:47:54.503Z,3.58
2022-09-03T22:49:35.765Z,4.40
2022-09-03T22:51:09.246Z,4.22
2022-09-03T22:52:41.088Z,3.70
2022-09-03T22:54:28.062Z,4.30
2022-09-03T22:56:12.194Z,4.57
2022-09-03T22:57:53.631Z,4.20
2022-09-03T22:59:30.083Z,4.22
2022-09-03T23:01:09.870Z,4.05
2022-09-03T23:02:42.305Z,4.50
2022-09-03T23:04:18.657Z,4.28
2022-09-03T23:05:52.517Z,4.45
2022-09-03T23:07:35.123Z,5.10
2022-09-03T23:09:15.608Z,4.45
2022-09-03T23:11:05.939Z,4.50
2022-09-03T23:12:45.079Z,4.63
2022-09-03T23:14:34.448Z,5.18
2022-09-03T23:16:38.172Z,4.35
2022-09-03T23:18:15.589Z,4.85
2022-09-03T23:19:50.549Z,5.07
2022-09-03T23:21:26.172Z,4.60
2022-09-03T23:23:22.649Z,4.57
2022-09-03T23:24:58.876Z,5.10
2022-09-03T23:26:40.930Z,5.10